< < Back
Terminal Aerodrome Forecast


Current Version              Previous Versions:   1  2  3  4  5  6  7  8  9  

Terminal Aerodrome Forecast

528
FTUS44 KMOB 010355 AAA
TAFPNS
TAF AMD
KPNS 010355Z 0104/0124 24007KT P6SM FEW040 SCT250 WS010/24035KT
     FM011000 24004KT 5SM BR FEW005 SCT250
     FM011600 22011G17KT P6SM SCT040 BKN250=

Latest METAR

250
SAUS70 KWBC 010800 RRP
MTRPNS
METAR KPNS 010753Z AUTO 25004KT 10SM CLR 19/17 A3001 RMK AO2 SLP164
T01940172


USA.gov is the U.S. government's official web portal to all federal, state and local government web resources and services.